Timeline UpdatesTrip UpdatesNews PostsPvt PostsTravel TipsAdmin PostsConv PostsFollowed PostsChat RequestsBlog PostsPNR Posts

Disclaimer
Search
 
 
Sat Aug 23, 2014 13:01:32 ISTHomeTrainsΣChainsAtlasPNRForumGalleryNewsFAQTripsMembersLoginFeedback
No Recent News for this Train
Other Trains in the News **new
Latest...
Will be regulated on Fridays till the departure of 12688 Dehradun - Madurai Express from Platform No. 1 from 10.05.2014 to 23.06.2014
Fri May 09, 2014 (05:32AM)
⇐ Return Journey: Train# 18478

18477/Kalinga Utkal Express

Mar 27 2014 (3:30PM)
Change Departure Station:
Change Arrival Station:
Post a Train Travel TipPost a Train Travel Tip **new
Post a Comment/Question/Picture/VideoPost a Comment/Question/Picture/Video
Pantry/Catering
✓ Pantry Car Avbl
✓ Catering Avbl
RSA - Rake Sharing
Rake/Coach Composition
Coach Composition:ENG-SLR-GS-GS-A1-B2-B1-S12-S11-S10-PC-S9-S8-S7-S6-S5-S4-S3-S2-S1-GS-SLR. By DJ 132 Entry# 701081
Loco
PURI-NZM: TKD WAP-7 NZM-HW: LDH WDM-3A
News    PNR    Forum    Time-Table    Availability    Fare Chart    Map    Arr/Dep History    Trips    Gallery    ΣChains    X/O    Timeline    
Travel Time: 29h 5m    37 halts    Distance: 1387 km    Avg Speed: 47 km/hr
Type: Mail/Express
Zone: ECoR/East Coast
Departs @ 15:25 (Avg 43m late)
Platform# 2
SMTWTFS
Bilaspur Junction/BSP 
Arrives @ 20:30 +1 night (Avg 11m late)
Platform# 2
SMTWTFS
Haridwar Junction/HW 

37 halts. 184 intermediate Stations between Bilaspur Junction and Haridwar Junction

Show ALL intermediate Stations  Show Old Time-Table

#CodeStation NameX/OArrivesAvgDepartsAvgHaltPFDay#KmSpeedElevZoneAddress
1PURIPuri (5)  -20:55+1551-984.24912mECoRPuri, Odisha
2SILSakhi Gopal (3)  21:15+1721:16+181m--1-967.84810mECoRPuri, Odisha
3KURKhurda Road Junction (7)X  21:50+1621:55+175m--1-940.34525mECoRKhordha, Odisha
4BBSBhubaneswar (4)  22:20+2022:25+215m41-921.46740mECoRBhubaneshwar, Odisha
5CTCCuttack Junction (5)  22:50+3022:55+305m11-893.57728mECoRCuttack, Odisha
6JJKRJajpur Keonjhar Road (4)  23:51+3223:52+331m--1-821.54036mECoRJajpur, Odisha
7BHCBhadrak (4)X  00:58+1601:00+182m--2-777.98323mECoRBhadrak, Odisha
8SOROSoroX  01:21+2201:22+231m--2-748.97214mSERSoro, Odisha
9BLSBalasore (4)X  01:50+2001:55+195m--2-715.47019mSERBalasore, Odisha
10BTSBasta (3)X  02:19+2802:20+291m--2-687.46916mSERBasta, Odisha
11JERJaleswar (4)X  02:37+2602:38+271m--2-667.98313mSERJaleswar, Odisha
12HIJHijli (2)  03:25+2403:26+281m--2-603.25048mSERdist - paschim medinipur, West Bengal
13CKUChakulia (4)  04:47+904:48+131m--2-535.480126mSERChakulia, Jharkhand
14GTSGhatsila (3)X  05:11+605:12+61m--2-504.841103mSEREast Singhbhum, Jharkhand
15TATATatanagar Junction (5)  06:05+1706:10+195m32-468.760164mSER91-657-2423026, Jharkhand
16SINISini Junction (3)X  06:37+2006:38+211m--2-441.757182mSERNational Highway 33, Jharkhand
17RKSNRajkharsawan Junction (3)  06:54+1906:55+211m--2-426.548189mSERSaraikela Kharswan District, Jharkhand
18CKPChakradharpur (3)X  07:20+1507:30+1610m--2-406.484235mSERChakradharpur (West Singhbhum), Jharkhand
19GOLGoilkera (2)  07:54+2207:55+231m--2-372.655333mSERGoilkera, Jharkhand
20MOUManoharpur  08:25+2108:26+221m--2-345.164228mSERManoharpur, Jharkhand
21BZRBisra  08:50+2408:51+251m--2-319.4114224mSERSundargarh, Odisha
22BNDMBondamunda (2)  08:55+3608:56+341m--2-311.921213mSERRourkela, Odisha
23ROURourkela Junction (5)X  09:15+2409:30+2515m12-305.466198mSERRourkela, Odisha
24GPRaj Gangpur (3)  09:57+2709:58+281m12-275.674237mSERRaj Ganpur, Odisha
25BMBBamra (3)  10:26+3010:27+311m--2-240.935259mSERBamra PH : 06642-229268, Odisha
26JSGJharsuguda Junction (5)X  11:30+1611:40+2010m--2-204.478236mSERJharsuguda, Odisha
27BRJNBrajrajnagarX  11:49+2311:50+251m--2-192.759212mSECRBrajrajnagar, Odisha
28BPHBelpaharX  11:59+2612:00+311m--2-183.885235mSECRBelpahar, Odisha
29RIGRaigarh (3)X  12:36+3912:41+395m22-132.889220mSECRRaigarh, Chhattisgarh
30KHSKharsia  13:04+4613:05+461m--2-98.871259mSECRNational Highway 200, Chhattisgarh
31SKTSakti (4)  13:18+4913:19+511m--2-83.474237mSECRJanjgir-Champa, Chhattisgarh
32BUABaradwar  13:31+5413:32+551m--2-68.555256mSECRJanjgir-Champa, Chhattisgarh
33CPHChampa Junction (3)  13:49+5713:54+565m22-53.065264mSECRNational Highway 200 (07819-245767), Chhattisgarh
34NIANaila  14:04+5514:05+571m--2-42.269273mSECRJanjgir, Chhattisgarh
35AKTAkaltara (4)X  14:18+5614:19+561m--2-27.232284mSECRDist. Janjgir Champa, Chhattisgarh
36BSP»Bilaspur Junction (8)»  15:10+3415:25+4315m220.060271mSECRBilaspur, Chhattisgarh
37KGBKargi Road  15:57+4815:58+501m--232.047327mSECRBilaspur, Chhattisgarh
38BIGBelgahna  16:18+4916:19+511m--247.849327mSECRBilaspur, Chhattisgarh
39PNDPendra Road  17:25+5517:30+565m92101.561620mSECRBilaspur district, Chhattisgarh
40APRAnuppur Junction (3)X  18:20+1:0118:25+1:025m--2152.776487mSECRAnuppur, Madhya Pradesh
41AALAmlaiX  18:35+1:0118:36+1:021m--2165.452495mSECRAnuppur, Madhya Pradesh
42BUHBurharX  18:46+1:0118:47+1:021m--2174.131494mSECRBurhar, Madhya Pradesh
43SDLShahdolX  19:25+4819:30+485m--2193.664466mSECR, Madhya Pradesh
44BRSBirsinghpur  20:05+4720:06+481m--2231.048461mSECRPali, Madhya Pradesh
45NRZBNowrozabadX  20:15+4620:16+471m--2238.247458mSECRNational Highway 78, Madhya Pradesh
46UMRUmaria (3)  20:45+3520:50+345m22260.860469mSECRUmaria, Madhya Pradesh
47CHDChandia Road (1)X  21:09+3321:10+351m12279.823406mSECRNational Highway 78, Madhya Pradesh
48KMZKatni Murwara  22:55+1223:10+2215m--2319.670385mWCRMP 483504 ?, Madhya Pradesh
49DMODamoh (2)  00:43+2400:45+252m--3428.878365mWCRDamoh, Madhya Pradesh
50PHAPatharia  01:05+3001:07+302m--3454.961382mWCRState Highway 14, Madhya Pradesh
51SGOSaugor (2)X  01:57+3302:00+343m--3505.855519mWCRMP 470001Madhya pradesh, Madhya Pradesh
52KYEKhurai (5)XO  02:58+2703:00+282m--3558.616439mWCRKhurai, Madhya Pradesh
53MAKRMalkheri Junction (2)  04:05+504:07+72m--3575.961421mWCRGuna, Madhya Pradesh
54LARLalitpur (3)X  05:09+1905:10+291m33639.0114373mNCRLalitpur, Uttar Pradesh
55TBTTalbahat (4)  05:31+2005:33+212m--3678.971314mNCRKhaniyadhana Station Rd, Madhya Pradesh
56BABBabina (3)X  05:54+3105:55+341m13703.938285mNCRBabina, Uttar Pradesh
57JHSJhansi Junction (7)  06:35+2706:43+338m43729.465259mNCRJhansi, Uttar Pradesh
58DAADatia (2)  07:06+2907:07+341m--3754.483264mNCRDatia, Madhya Pradesh
59DBADabra (3)X  07:29+4707:30+531m13784.839 NCRDabra(District-Gwalior), Madhya Pradesh
60GWLGwalior Junction (4)X  08:35+3708:40+395m23827.183214mNCRGwalior, Madhya Pradesh
61MRAMorena (3)  09:08+4109:09+431m23865.667176mNCRMorena, Madhya Pradesh
62DHODholpur Junction (3)X  09:33+3109:34+321m13892.544177mNCRDholpur, Rajasthan
63AGCAgra Cantt. (6)X  10:45+2310:53+258m33945.124174mNCRAgra, Uttar Pradesh
64RKMRaja Ki Mandi (4)  11:03+2611:04+271m13949.169170mNCRAgra, Uttar Pradesh
65MTJMathura Junction (10)X  11:47+3311:52+335m23998.869179mNCRMathura, Uttar Pradesh
66FDBFaridabad (4)X  13:30+2013:31+221m231111.937206mNRold Faridabad, Haryana
67NZMDelhi Hazrat Nizamuddin (7)XO14:05+4014:35+3730m131132.739209mNRNew Delhi 110013, Delhi NCT
68GZBGhaziabad Junction (6)  15:11+4715:13+472m131156.167217mNRGhaziabad, Uttar Pradesh
69MTCMeerut City Junction (6)  15:55+5516:00+555m131203.464229mNRMeerut, Uttar Pradesh
70MOZMuzaffarnagar (3)  16:52+5416:53+561m131258.918247mNRMuzaffarNagar, Uttar Pradesh
71DBDDeoband (2)X  18:11+1818:12+191m131283.034258mNRSaharanpur, Uttar Pradesh
72TPZTapri Junction (2)  19:01+919:02+111m231310.655274mNRTapri -Saharanpur, Uttar Pradesh
73RKRoorkee (3)X  19:37+1219:38+151m331342.752264mNRRoorkee - 247667, Uttarakhand
74HW•Haridwar Junction (9)•  20:30+11-231387.4-294mNRHaridwar, Uttarakhand
Scroll to Top
Scroll to Bottom